Time;durP1;ratioP1;P1;durP2;ratioP2;P2;SDS_P1;SDS_P2;PMS_P1;PMS_P2;Temp;Humidity;BMP_temperature;BMP_pressure;BME280_temperature;BME280_humidity;BME280_pressure;Samples;Min_cycle;Max_cycle;Signal;HPM_P1;HPM_P2
2022/02/23 00:00:37;;;;;;;14.77;8.30;;;;;;;6.63;52.01;101278.50;5151662;27;20520;-69
2022/02/23 00:03:22;;;;;;;10.70;5.28;;;;;;;6.66;52.03;101267.13;5147310;27;20046;-69
2022/02/23 00:06:07;;;;;;;13.80;6.32;;;;;;;7.04;51.07;101262.13;5154957;27;20042;-69
2022/02/23 00:08:52;;;;;;;10.05;5.55;;;;;;;6.61;51.59;101264.44;5153258;27;20401;-69
2022/02/23 00:11:37;;;;;;;10.48;5.07;;;;;;;6.67;51.34;101263.34;5137619;27;20038;-69
2022/02/23 00:14:22;;;;;;;11.88;5.57;;;;;;;6.14;52.34;101274.81;5156279;27;20034;-69
2022/02/23 00:17:07;;;;;;;6.78;4.60;;;;;;;6.31;50.56;101281.53;5155299;27;20042;-69
2022/02/23 00:19:53;;;;;;;8.45;5.05;;;;;;;6.44;50.40;101285.56;5141223;27;20308;-70
2022/02/23 00:22:39;;;;;;;21.88;5.50;;;;;;;6.34;50.11;101282.91;5140033;27;20413;-69
2022/02/23 00:25:23;;;;;;;11.20;5.53;;;;;;;6.39;49.83;101274.78;5156262;27;20034;-69
2022/02/23 00:28:08;;;;;;;20.17;4.85;;;;;;;6.29;49.64;101283.72;5140486;27;20050;-69
2022/02/23 00:30:54;;;;;;;28.50;5.50;;;;;;;6.03;51.10;101286.72;5154417;27;20038;-68
2022/02/23 00:33:40;;;;;;;9.77;3.30;;;;;;;6.38;49.29;101281.25;5153928;27;20049;-68
2022/02/23 00:36:27;;;;;;;8.00;4.00;;;;;;;6.35;48.96;101287.19;5148911;27;20042;-68
2022/02/23 00:39:12;;;;;;;10.38;4.38;;;;;;;6.26;48.36;101286.13;5155104;27;20046;-68
2022/02/23 00:41:57;;;;;;;4.63;2.75;;;;;;;6.22;48.73;101277.78;5151784;27;20410;-66
2022/02/23 00:44:42;;;;;;;13.07;4.25;;;;;;;6.11;48.75;101280.75;5156148;27;20049;-67
2022/02/23 00:47:27;;;;;;;6.57;3.58;;;;;;;5.91;49.12;101287.78;5156284;27;20049;-67
2022/02/23 00:50:12;;;;;;;11.98;3.83;;;;;;;6.23;48.82;101292.09;5153391;27;20037;-67
2022/02/23 00:52:57;;;;;;;4.15;2.70;;;;;;;6.34;48.13;101289.09;5152777;27;20056;-67
2022/02/23 00:55:42;;;;;;;6.50;2.90;;;;;;;6.38;48.24;101292.06;5142425;27;20043;-68
2022/02/23 00:58:27;;;;;;;4.43;2.00;;;;;;;6.56;48.16;101282.56;5142306;27;20508;-69
2022/02/23 01:01:12;;;;;;;5.50;2.72;;;;;;;6.15;48.83;101295.31;5154010;27;20045;-69
2022/02/23 01:03:57;;;;;;;3.80;2.30;;;;;;;5.98;48.75;101291.03;5151616;27;20047;-69
2022/02/23 01:06:42;;;;;;;5.70;2.90;;;;;;;5.95;49.53;101296.13;5155594;27;20417;-69
2022/02/23 01:09:27;;;;;;;3.25;2.10;;;;;;;5.82;49.46;101293.97;5142228;27;20053;-68
2022/02/23 01:12:12;;;;;;;4.38;2.92;;;;;;;5.90;50.20;101305.03;5154613;27;20042;-69
2022/02/23 01:14:57;;;;;;;4.95;2.40;;;;;;;5.80;49.58;101296.09;5155714;27;20045;-70
2022/02/23 01:17:42;;;;;;;9.50;2.47;;;;;;;5.70;49.36;101296.09;5155779;27;20065;-70
2022/02/23 01:20:27;;;;;;;7.68;2.40;;;;;;;5.73;49.10;101296.38;5139805;27;20058;-70
2022/02/23 01:23:12;;;;;;;9.90;3.35;;;;;;;5.76;49.03;101297.72;5155659;27;20054;-70
2022/02/23 01:25:57;;;;;;;8.93;2.33;;;;;;;5.68;48.99;101299.09;5141633;27;20054;-69
2022/02/23 01:28:42;;;;;;;7.50;2.15;;;;;;;5.66;50.63;101298.53;5155516;27;20053;-70
2022/02/23 01:31:27;;;;;;;3.40;1.88;;;;;;;5.86;48.61;101306.63;5155152;27;20042;-68
2022/02/23 01:34:12;;;;;;;4.38;2.05;;;;;;;5.87;48.45;101307.47;5154870;27;20397;-67
2022/02/23 01:36:56;;;;;;;8.30;2.22;;;;;;;5.91;48.77;101314.78;5154988;27;20097;-69
2022/02/23 01:39:42;;;;;;;8.65;2.00;;;;;;;5.52;48.29;101316.31;5155157;27;20046;-67
2022/02/23 01:42:28;;;;;;;3.65;1.88;;;;;;;5.79;47.75;101316.88;5154714;27;20042;-67
2022/02/23 01:45:12;;;;;;;6.45;2.35;;;;;;;5.95;47.75;101315.84;5154884;27;20042;-68
2022/02/23 01:47:58;;;;;;;5.53;1.65;;;;;;;6.03;47.87;101316.41;5155101;27;20053;-68
2022/02/23 01:50:43;;;;;;;2.50;1.70;;;;;;;5.86;47.58;101322.84;5155426;27;20061;-68
2022/02/23 01:53:28;;;;;;;4.72;1.65;;;;;;;5.97;47.08;101318.28;5120117;27;20046;-68
2022/02/23 01:56:13;;;;;;;6.60;1.83;;;;;;;6.00;47.24;101318.53;5134432;27;20406;-68
2022/02/23 01:58:58;;;;;;;4.57;1.50;;;;;;;5.99;48.07;101325.03;5134270;27;20039;-68
2022/02/23 02:01:43;;;;;;;2.78;1.60;;;;;;;5.73;47.99;101320.66;5123532;27;20034;-68
2022/02/23 02:04:28;;;;;;;2.42;1.60;;;;;;;5.59;48.28;101320.34;5154138;27;20046;-68
2022/02/23 02:07:13;;;;;;;1.60;1.48;;;;;;;5.49;48.65;101325.72;5154681;27;20046;-67
2022/02/23 02:09:58;;;;;;;8.88;1.80;;;;;;;5.61;48.34;101322.81;5154774;27;20054;-68
2022/02/23 02:12:43;;;;;;;7.03;1.60;;;;;;;5.80;46.82;101312.28;5154416;27;20049;-67
2022/02/23 02:15:28;;;;;;;4.93;2.10;;;;;;;5.86;48.01;101312.03;5154572;27;20054;-68
2022/02/23 02:18:13;;;;;;;1.98;1.33;;;;;;;5.85;47.48;101306.91;5154492;27;20046;-67
2022/02/23 02:20:58;;;;;;;;;;;;;;;6.12;45.96;101309.38;5154903;27;20053;-67
2022/02/23 02:23:42;;;;;;;6.07;2.28;;;;;;;6.20;47.33;101309.63;5154054;27;19911;-67
2022/02/23 02:26:27;;;;;;;7.93;1.83;;;;;;;6.18;46.40;101314.50;5154462;27;20046;-67
2022/02/23 02:29:12;;;;;;;5.80;2.35;;;;;;;5.94;46.04;101308.81;5154360;27;20409;-67
2022/02/23 02:31:57;;;;;;;6.70;1.73;;;;;;;6.02;45.92;101310.19;5154520;27;20053;-67
2022/02/23 02:34:42;;;;;;;2.97;1.73;;;;;;;6.13;44.77;101305.59;5140694;27;20061;-70
2022/02/23 02:37:27;;;;;;;9.40;1.65;;;;;;;6.29;45.89;101299.91;5154303;27;20159;-67
2022/02/23 02:40:12;;;;;;;3.28;1.83;;;;;;;6.04;45.53;101301.81;5154241;27;20521;-68
2022/02/23 02:42:57;;;;;;;6.03;1.65;;;;;;;6.41;46.79;101299.63;5153742;27;20500;-68
2022/02/23 02:45:42;;;;;;;2.42;1.83;;;;;;;6.37;44.34;101291.25;5153663;27;20410;-67
2022/02/23 02:48:27;;;;;;;4.35;1.83;;;;;;;6.27;45.68;101279.66;5154208;27;20401;-69
2022/02/23 02:51:12;;;;;;;5.43;1.50;;;;;;;6.15;46.02;101289.91;5154077;27;20041;-68
2022/02/23 02:53:57;;;;;;;1.90;1.23;;;;;;;6.14;44.96;101283.72;5154127;27;20057;-68
2022/02/23 02:56:43;;;;;;;6.35;1.80;;;;;;;6.04;46.61;101285.63;5153915;27;20088;-68
2022/02/23 02:59:27;;;;;;;5.47;1.75;;;;;;;6.00;45.50;101279.94;5153940;27;20104;-68
2022/02/23 03:02:12;;;;;;;4.78;1.50;;;;;;;6.03;45.90;101284.81;5153927;27;20120;-68
2022/02/23 03:04:57;;;;;;;2.83;1.55;;;;;;;5.73;46.31;101287.47;5153393;27;20041;-68
2022/02/23 03:07:42;;;;;;;3.80;1.50;;;;;;;5.76;46.08;101290.44;5153909;27;20069;-68
2022/02/23 03:10:27;;;;;;;8.57;1.65;;;;;;;5.58;46.88;101289.09;5153736;27;20046;-68
2022/02/23 03:13:12;;;;;;;4.97;1.70;;;;;;;5.60;46.32;101295.00;5143511;27;20053;-67
2022/02/23 03:15:58;;;;;;;1.70;1.20;;;;;;;5.50;46.85;101291.47;5152104;27;20042;-68
2022/02/23 03:18:43;;;;;;;10.52;1.90;;;;;;;5.35;47.37;101294.97;5148939;27;20066;-68
2022/02/23 03:21:28;;;;;;;1.80;1.33;;;;;;;5.42;47.72;101289.31;5148085;27;20508;-69
2022/02/23 03:24:12;;;;;;;8.52;2.28;;;;;;;5.68;46.90;101299.09;5149208;27;20046;-68
2022/02/23 03:26:57;;;;;;;3.00;1.33;;;;;;;5.48;47.23;101305.25;5145633;27;20042;-68
2022/02/23 03:29:43;;;;;;;8.05;1.70;;;;;;;5.77;46.25;101296.66;5132846;28;20046;-68
2022/02/23 03:32:27;;;;;;;6.38;1.88;;;;;;;5.85;45.53;101301.50;5141663;27;20046;-68
2022/02/23 03:35:12;;;;;;;2.60;1.50;;;;;;;5.81;45.42;101306.63;5145400;27;20128;-69
2022/02/23 03:37:58;;;;;;;3.33;1.70;;;;;;;5.55;46.08;101311.19;5151989;27;20065;-67
2022/02/23 03:40:43;;;;;;;6.25;1.88;;;;;;;5.43;46.44;101302.56;5157677;27;20452;-66
2022/02/23 03:43:28;;;;;;;10.40;1.70;;;;;;;5.70;46.38;101305.00;5157590;27;20067;-67
2022/02/23 03:46:13;;;;;;;6.15;1.80;;;;;;;5.76;44.98;101301.25;5157130;27;20057;-67
2022/02/23 03:48:57;;;;;;;2.20;1.08;;;;;;;5.86;44.27;101303.94;5148792;27;20049;-67
2022/02/23 03:51:42;;;;;;;11.75;1.52;;;;;;;5.82;44.63;101305.56;5157881;27;20057;-68
2022/02/23 03:54:27;;;;;;;2.35;1.23;;;;;;;5.75;44.83;101315.81;5157149;27;20516;-68
2022/02/23 03:57:12;;;;;;;4.07;1.40;;;;;;;5.77;45.47;101318.25;5157294;27;20534;-68
2022/02/23 03:59:57;;;;;;;1.23;0.93;;;;;;;5.63;44.81;101325.25;5157238;27;20049;-68
2022/02/23 04:02:43;;;;;;;2.53;1.20;;;;;;;5.68;45.38;101328.75;5157159;27;20393;-69
2022/02/23 04:05:29;;;;;;;1.88;1.40;;;;;;;5.65;44.54;101337.38;5155174;27;20050;-69
2022/02/23 04:08:13;;;;;;;1.17;0.80;;;;;;;5.72;44.14;101334.44;5157091;27;20472;-69
2022/02/23 04:10:59;;;;;;;4.03;1.58;;;;;;;5.79;43.89;101338.47;5136286;27;20042;-69
2022/02/23 04:13:43;;;;;;;2.72;1.02;;;;;;;5.64;44.71;101348.44;5136125;27;20053;-68
2022/02/23 04:16:28;;;;;;;1.65;1.00;;;;;;;5.50;45.45;101337.34;5155554;27;20045;-68
2022/02/23 04:19:13;;;;;;;5.47;1.50;;;;;;;5.50;45.44;101345.44;5139871;27;20046;-69
2022/02/23 04:21:58;;;;;;;1.90;0.80;;;;;;;5.46;44.60;101347.84;5136238;27;20417;-68
2022/02/23 04:24:43;;;;;;;1.42;1.17;;;;;;;5.58;44.65;101347.63;5137840;27;20046;-67
2022/02/23 04:27:28;;;;;;;3.30;0.98;;;;;;;5.58;44.46;101347.63;5156951;27;20054;-67
2022/02/23 04:30:13;;;;;;;3.15;0.95;;;;;;;5.76;44.17;101363.28;5156846;27;20046;-67
2022/02/23 04:32:58;;;;;;;;;;;;;;;5.60;44.71;101358.94;5145106;27;20061;-68
2022/02/23 04:35:43;;;;;;;7.03;1.63;;;;;;;5.87;45.85;101361.47;5156435;27;19911;-68
2022/02/23 04:38:28;;;;;;;7.50;1.40;;;;;;;5.97;44.92;101359.59;5156582;27;20042;-68
2022/02/23 04:41:13;;;;;;;1.90;0.93;;;;;;;5.86;45.95;101357.91;5156526;27;20049;-68
2022/02/23 04:43:58;;;;;;;1.30;0.95;;;;;;;5.75;44.27;101361.66;5156255;27;20057;-69
2022/02/23 04:46:43;;;;;;;1.52;0.98;;;;;;;5.61;44.27;101363.25;5141158;27;20046;-68
2022/02/23 04:49:28;;;;;;;2.03;1.00;;;;;;;5.46;43.65;101363.22;5156489;27;20120;-68
2022/02/23 04:52:13;;;;;;;5.22;0.90;;;;;;;5.43;44.30;101363.75;5156556;27;20042;-68
2022/02/23 04:54:58;;;;;;;2.28;0.98;;;;;;;5.59;46.25;101362.72;5155805;27;20050;-68
2022/02/23 04:57:43;;;;;;;1.30;0.80;;;;;;;5.74;45.95;101361.97;5144331;27;20038;-68
2022/02/23 05:00:28;;;;;;;2.03;0.95;;;;;;;5.85;43.02;101367.09;5145007;27;20413;-69
2022/02/23 05:03:13;;;;;;;2.05;1.65;;;;;;;5.52;43.85;101371.06;5143765;27;20057;-68
2022/02/23 05:05:59;;;;;;;2.00;0.90;;;;;;;5.36;44.74;101365.88;5150188;27;20046;-69
2022/02/23 05:08:44;;;;;;;2.08;1.27;;;;;;;5.53;44.03;101377.28;5135204;27;20406;-68
2022/02/23 05:11:28;;;;;;;1.85;0.93;;;;;;;5.41;45.51;101374.00;5141799;27;20054;-68
2022/02/23 05:14:14;;;;;;;0.98;0.68;;;;;;;5.62;44.88;101383.78;5143064;27;20408;-68
2022/02/23 05:16:59;;;;;;;1.58;0.88;;;;;;;5.60;44.71;101384.03;5155422;27;20050;-68
2022/02/23 05:19:45;;;;;;;6.38;0.80;;;;;;;5.46;45.22;101374.81;5128317;27;20050;-68
2022/02/23 05:22:30;;;;;;;2.50;1.23;;;;;;;5.39;45.02;101387.72;5155697;27;20116;-68
2022/02/23 05:25:16;;;;;;;1.92;0.70;;;;;;;5.67;46.82;101391.88;5155471;27;20410;-68
2022/02/23 05:28:01;;;;;;;4.25;1.35;;;;;;;5.76;46.33;101397.56;5155270;27;20118;-68
2022/02/23 05:30:46;;;;;;;2.63;1.42;;;;;;;5.51;45.40;101395.59;5155584;27;20497;-68
2022/02/23 05:33:32;;;;;;;3.58;1.83;;;;;;;5.82;47.76;101391.91;5155391;27;20053;-67
2022/02/23 05:36:17;;;;;;;8.25;1.38;;;;;;;5.55;44.67;101394.00;5155430;27;20049;-68
2022/02/23 05:39:01;;;;;;;2.28;1.20;;;;;;;5.26;45.64;101399.00;5155230;27;20065;-68
2022/02/23 05:41:46;;;;;;;1.90;1.40;;;;;;;5.44;48.09;101405.81;5146786;27;20046;-68
2022/02/23 05:44:32;;;;;;;7.07;2.63;;;;;;;5.39;45.76;101403.91;5154966;27;20050;-68
2022/02/23 05:47:17;;;;;;;8.57;3.08;;;;;;;5.71;45.15;101411.03;5155184;27;20048;-68
2022/02/23 05:50:02;;;;;;;4.35;1.83;;;;;;;5.37;44.64;101414.16;5155060;27;20049;-69
2022/02/23 05:52:47;;;;;;;3.08;1.30;;;;;;;5.66;45.72;101408.31;5155448;27;20394;-69
2022/02/23 05:55:32;;;;;;;2.20;0.93;;;;;;;5.65;44.83;101418.31;5154868;27;20050;-68
2022/02/23 05:58:17;;;;;;;8.63;1.77;;;;;;;5.78;47.92;101425.91;5152382;27;20050;-68
2022/02/23 06:01:02;;;;;;;19.23;3.72;;;;;;;5.76;45.46;101427.25;5149263;27;20053;-68
2022/02/23 06:03:47;;;;;;;23.90;12.57;;;;;;;5.71;44.16;101428.03;5145919;27;20038;-68
2022/02/23 06:06:32;;;;;;;19.48;9.38;;;;;;;5.37;44.94;101432.22;5154894;27;20405;-69
2022/02/23 06:09:17;;;;;;;12.80;9.73;;;;;;;5.18;45.17;101439.16;5154204;27;20509;-68
2022/02/23 06:12:02;;;;;;;4.22;2.40;;;;;;;5.44;45.54;101448.97;5149142;27;20045;-68
2022/02/23 06:14:47;;;;;;;5.07;2.00;;;;;;;5.42;45.96;101451.13;5150679;27;20041;-68
2022/02/23 06:17:32;;;;;;;2.35;1.50;;;;;;;5.52;46.81;101457.38;5145708;27;20050;-68
2022/02/23 06:20:17;;;;;;;11.15;1.20;;;;;;;5.59;47.48;101459.81;5153606;27;20042;-68
2022/02/23 06:23:02;;;;;;;4.60;1.35;;;;;;;5.50;46.14;101461.41;5142402;27;20038;-68
2022/02/23 06:25:47;;;;;;;24.25;2.15;;;;;;;5.80;46.95;101463.41;5150016;27;20053;-68
2022/02/23 06:28:32;;;;;;;3.58;1.75;;;;;;;5.68;46.52;101469.06;5150980;27;20042;-68
2022/02/23 06:31:18;;;;;;;13.98;3.53;;;;;;;5.90;46.99;101469.69;5135061;27;20414;-68
2022/02/23 06:34:03;;;;;;;11.98;1.70;;;;;;;6.31;47.19;101481.41;5147077;27;20046;-68
2022/02/23 06:36:48;;;;;;;3.28;1.70;;;;;;;7.11;44.39;101479.75;5151070;27;20054;-71
2022/02/23 06:39:37;;;;;;;2.45;1.42;;;;;;;7.55;41.85;101481.81;5141315;27;20045;-71
2022/02/23 06:42:23;;;;;;;11.82;3.22;;;;;;;7.36;41.12;101486.22;5151448;27;20050;-70
2022/02/23 06:45:09;;;;;;;13.55;2.47;;;;;;;6.75;42.27;101481.72;5153560;27;20046;-72
2022/02/23 06:47:54;;;;;;;13.52;3.22;;;;;;;6.71;43.55;101479.78;5153885;27;20049;-71
2022/02/23 06:50:39;;;;;;;3.88;1.63;;;;;;;6.53;45.85;101483.84;5154084;27;20053;-71
2022/02/23 06:53:24;;;;;;;2.90;1.38;;;;;;;6.70;47.33;101486.31;5153872;27;20049;-71
2022/02/23 06:56:09;;;;;;;8.23;1.20;;;;;;;6.90;45.34;101494.41;5154000;27;20045;-70
2022/02/23 06:58:54;;;;;;;5.82;2.58;;;;;;;6.91;44.96;101487.13;5154011;27;20730;-70
2022/02/23 07:01:41;;;;;;;9.43;1.98;;;;;;;6.72;46.21;101501.16;5153840;27;20061;-70
2022/02/23 07:04:26;;;;;;;5.05;2.35;;;;;;;6.99;45.96;101508.19;5143290;27;20116;-70
2022/02/23 07:07:11;;;;;;;4.78;3.10;;;;;;;7.08;46.42;101503.84;5153837;27;20050;-71
2022/02/23 07:09:56;;;;;;;40.33;14.93;;;;;;;7.14;45.69;101502.75;5144352;27;20049;-71
2022/02/23 07:12:41;;;;;;;34.50;15.10;;;;;;;7.22;45.01;101513.00;5153684;27;20061;-71
2022/02/23 07:15:26;;;;;;;34.15;17.52;;;;;;;7.20;44.19;101509.78;5153507;27;20046;-71
2022/02/23 07:18:11;;;;;;;58.25;23.20;;;;;;;7.31;46.09;101514.88;5153798;27;20053;-70
2022/02/23 07:20:56;;;;;;;43.38;19.67;;;;;;;7.54;46.20;101513.50;5153845;27;20100;-71
2022/02/23 07:23:41;;;;;;;34.08;14.65;;;;;;;7.69;45.61;101513.44;5153370;27;20068;-71
2022/02/23 07:26:26;;;;;;;25.02;10.77;;;;;;;7.77;45.76;101527.50;5153505;27;20046;-71
2022/02/23 07:29:11;;;;;;;17.20;8.50;;;;;;;8.00;45.13;101529.56;5153606;27;20061;-71
2022/02/23 07:31:56;;;;;;;25.73;11.10;;;;;;;8.08;45.59;101531.69;5153509;27;20042;-71
2022/02/23 07:34:42;;;;;;;12.32;6.03;;;;;;;8.12;46.40;101530.88;5153349;27;20061;-71
2022/02/23 07:37:27;;;;;;;23.85;8.27;;;;;;;8.23;45.31;101534.31;5153460;27;20717;-71
2022/02/23 07:40:15;;;;;;;13.15;6.28;;;;;;;8.25;43.35;101547.59;5153493;27;20061;-71
2022/02/23 07:43:00;;;;;;;32.25;8.90;;;;;;;8.39;44.21;101549.44;5143920;27;20057;-71
2022/02/23 07:45:46;;;;;;;17.85;8.60;;;;;;;8.50;44.38;101551.00;5135797;27;20046;-70
2022/02/23 07:48:32;;;;;;;12.55;6.22;;;;;;;8.41;43.47;101554.59;5144529;27;20046;-71
2022/02/23 07:51:17;;;;;;;14.30;7.35;;;;;;;8.44;42.81;101554.81;5150788;27;20559;-71
2022/02/23 07:54:04;;;;;;;7.57;2.92;;;;;;;8.53;43.29;101549.63;5131654;28;20061;-72
2022/02/23 07:56:53;;;;;;;8.95;3.83;;;;;;;8.65;43.10;101546.56;5118577;28;20108;-71
2022/02/23 07:59:39;;;;;;;9.65;3.63;;;;;;;8.75;46.40;101547.31;5136145;27;20513;-70
2022/02/23 08:02:30;;;;;;;6.80;3.08;;;;;;;8.50;47.49;101556.41;5152834;27;20054;-75
2022/02/23 08:05:15;;;;;;;13.55;3.88;;;;;;;8.08;47.47;101565.00;5152489;27;20069;-72
2022/02/23 08:08:01;;;;;;;14.82;4.38;;;;;;;8.23;46.66;101561.41;5150196;27;20057;-72
2022/02/23 08:10:46;;;;;;;7.25;2.35;;;;;;;8.15;47.16;101562.81;5144340;27;20037;-72
2022/02/23 08:13:31;;;;;;;9.43;3.42;;;;;;;8.18;47.51;101573.06;5146727;27;20054;-71
2022/02/23 08:22:18;;;;;;;11.18;4.10;;;;;;;8.51;51.11;101582.44;5142215;27;20054;-71
2022/02/23 08:25:03;;;;;;;13.40;5.57;;;;;;;8.58;51.12;101585.63;5131200;27;20058;-71
2022/02/23 08:27:48;;;;;;;12.65;5.75;;;;;;;9.15;48.87;101592.28;5139752;27;20046;-71
2022/02/23 08:30:34;;;;;;;;;;;;;;;8.93;49.44;101586.50;5145391;27;20054;-70
2022/02/23 08:33:18;;;;;;;17.30;5.80;;;;;;;8.69;49.87;101588.28;5153344;27;20380;-70
2022/02/23 08:36:03;;;;;;;8.23;3.63;;;;;;;8.59;48.33;101597.28;5156512;27;20524;-71
2022/02/23 08:38:48;;;;;;;14.20;5.80;;;;;;;8.61;46.85;101594.31;5156448;27;20050;-71
2022/02/23 08:41:34;;;;;;;6.70;4.22;;;;;;;8.69;45.92;101591.81;5156401;27;20049;-71
2022/02/23 08:44:19;;;;;;;11.90;4.88;;;;;;;8.76;45.67;101592.31;5156265;27;20077;-70
2022/02/23 08:47:05;;;;;;;10.63;4.95;;;;;;;9.00;45.82;101605.97;5156355;27;20053;-70
2022/02/23 08:49:49;;;;;;;9.75;5.25;;;;;;;9.12;46.09;101605.63;5156380;27;20050;-70
2022/02/23 08:52:34;;;;;;;12.15;4.35;;;;;;;9.14;46.11;101612.41;5156359;27;20042;-71
2022/02/23 08:55:19;;;;;;;7.82;4.15;;;;;;;9.19;45.92;101615.06;5143858;27;20050;-70
2022/02/23 08:58:05;;;;;;;11.82;4.15;;;;;;;9.36;45.95;101612.72;5142329;27;20449;-71
2022/02/23 09:00:51;;;;;;;15.50;4.40;;;;;;;9.50;46.33;101617.50;5156042;27;20042;-72
2022/02/23 09:03:36;;;;;;;9.65;4.38;;;;;;;9.59;46.02;101624.75;5155926;27;20075;-71
2022/02/23 09:06:22;;;;;;;11.65;3.60;;;;;;;9.71;46.01;101629.78;5156010;27;20050;-71
2022/02/23 09:09:13;;;;;;;36.22;5.10;;;;;;;9.83;44.76;101628.31;5156252;27;20054;-71
2022/02/23 09:11:58;;;;;;;7.28;4.63;;;;;;;9.99;44.12;101639.81;5155913;27;20513;-71
2022/02/23 09:14:43;;;;;;;7.47;4.13;;;;;;;10.08;43.95;101645.44;5155725;27;20045;-71
2022/02/23 09:17:28;;;;;;;8.77;3.45;;;;;;;10.20;43.97;101654.84;5155736;27;20129;-70
2022/02/23 09:20:13;;;;;;;5.45;3.00;;;;;;;10.27;42.73;101649.84;5155902;27;20054;-71
2022/02/23 09:22:58;;;;;;;6.88;3.15;;;;;;;10.39;42.61;101652.16;5155608;27;20050;-71
2022/02/23 09:25:43;;;;;;;4.22;2.92;;;;;;;10.36;41.22;101652.75;5155312;27;20116;-71
2022/02/23 09:28:29;;;;;;;8.00;3.40;;;;;;;10.55;42.60;101650.88;5155639;27;20042;-71
2022/02/23 09:31:14;;;;;;;7.18;3.72;;;;;;;10.61;41.66;101655.16;5142210;27;20049;-71
2022/02/23 09:33:59;;;;;;;9.38;3.63;;;;;;;10.60;41.83;101655.44;5154443;27;20045;-71
2022/02/23 09:36:44;;;;;;;9.05;3.38;;;;;;;10.75;42.89;101660.66;5155493;27;20500;-70
2022/02/23 09:39:29;;;;;;;7.25;3.28;;;;;;;10.89;41.42;101664.28;5142513;27;20046;-71
2022/02/23 09:42:14;;;;;;;4.93;2.92;;;;;;;10.96;41.20;101663.91;5147148;27;20054;-70
2022/02/23 09:44:59;;;;;;;8.70;2.90;;;;;;;11.07;40.57;101666.16;5145081;27;20054;-71
2022/02/23 09:47:46;;;;;;;12.82;3.90;;;;;;;11.04;39.04;101677.66;5149174;27;20049;-71
2022/02/23 09:50:33;;;;;;;10.95;3.13;;;;;;;11.01;38.91;101680.97;5135979;27;20046;-70
2022/02/23 09:53:22;;;;;;;11.70;3.38;;;;;;;11.13;37.13;101684.06;5151252;27;20041;-70
2022/02/23 09:56:08;;;;;;;8.50;3.53;;;;;;;11.19;37.11;101682.06;5148358;27;20045;-70
2022/02/23 09:58:54;;;;;;;3.80;1.80;;;;;;;11.35;33.14;101680.72;5151296;27;20065;-70
2022/02/23 10:01:40;;;;;;;12.25;3.00;;;;;;;11.38;35.83;101696.47;5152784;27;20287;-71
2022/02/23 10:04:25;;;;;;;3.92;2.38;;;;;;;11.48;35.05;101690.03;5145555;27;20054;-71
2022/02/23 10:07:12;;;;;;;3.60;2.13;;;;;;;11.50;35.17;101691.38;5145984;27;20042;-71
2022/02/23 10:10:00;;;;;;;8.13;2.53;;;;;;;11.72;34.75;101692.66;5154315;27;20128;-71
2022/02/23 10:12:52;;;;;;;5.53;2.67;;;;;;;11.63;34.42;101705.34;5154211;27;20058;-71
2022/02/23 10:15:41;;;;;;;5.88;2.92;;;;;;;11.82;36.36;101706.13;5135338;27;20049;-71
2022/02/23 10:18:28;;;;;;;12.40;3.17;;;;;;;12.04;36.34;101697.31;5152727;27;20046;-71
2022/02/23 10:21:17;;;;;;;4.07;2.65;;;;;;;12.10;32.60;101696.91;5150538;27;20054;-71
2022/02/23 10:24:27;;;;;;;3.67;2.60;;;;;;;12.33;33.91;101703.28;5145986;27;20074;-70
2022/02/23 10:27:15;;;;;;;4.40;2.20;;;;;;;12.28;32.17;101709.66;5134878;27;20041;-71
2022/02/23 10:29:59;;;;;;;3.90;2.28;;;;;;;12.42;31.30;101698.75;5136555;27;20034;-70
2022/02/23 10:32:44;;;;;;;2.55;1.60;;;;;;;12.51;32.20;101705.09;5151850;27;20042;-71
2022/02/23 10:35:29;;;;;;;9.95;3.30;;;;;;;12.79;34.78;101703.97;5141244;27;20046;-71
2022/02/23 10:38:20;;;;;;;4.38;2.50;;;;;;;12.37;31.90;101709.75;5136396;27;20046;-71
2022/02/23 10:41:26;;;;;;;3.88;2.28;;;;;;;12.46;32.73;101713.38;5145217;27;20038;-72
2022/02/23 10:44:10;;;;;;;;;;;;;;;12.52;31.03;101700.44;5154504;27;20509;-71
2022/02/23 10:46:56;;;;;;;9.30;2.80;;;;;;;12.43;32.31;101711.28;5131815;27;19915;-74
2022/02/23 10:49:41;;;;;;;8.52;2.40;;;;;;;12.60;32.33;101716.09;5142808;27;20061;-74
2022/02/23 10:52:32;;;;;;;5.35;2.28;;;;;;;12.88;32.77;101711.44;5136262;27;20042;-74
2022/02/23 10:55:22;;;;;;;5.03;2.90;;;;;;;12.99;33.60;101713.66;5143161;27;20050;-74
2022/02/23 10:58:07;;;;;;;4.97;2.75;;;;;;;13.07;32.38;101712.09;5139187;27;20034;-73
2022/02/23 11:01:04;;;;;;;9.80;3.67;;;;;;;13.27;32.48;101720.66;5143165;27;20050;-74
2022/02/23 11:03:48;;;;;;;6.68;2.60;;;;;;;13.54;33.20;101718.94;5153113;27;20509;-75
2022/02/23 11:06:34;;;;;;;2.92;1.30;;;;;;;13.39;32.04;101708.38;5129578;27;20049;-74
2022/02/23 11:09:19;;;;;;;6.88;3.85;;;;;;;13.46;33.92;101700.56;5137104;27;20050;-74
2022/02/23 11:12:05;;;;;;;2.95;1.88;;;;;;;13.60;32.86;101712.25;5149665;27;20053;-74
2022/02/23 11:14:50;;;;;;;5.10;2.97;;;;;;;13.52;31.87;101705.59;5139418;27;20513;-73
2022/02/23 11:17:37;;;;;;;3.33;2.47;;;;;;;13.53;33.15;101706.41;5146017;27;20057;-74
2022/02/23 11:20:30;;;;;;;4.40;2.55;;;;;;;13.58;31.36;101707.09;5139405;27;20054;-74
2022/02/23 11:23:19;;;;;;;3.58;2.47;;;;;;;13.45;32.41;101693.50;5130135;27;20116;-74
2022/02/23 11:26:06;;;;;;;4.43;2.78;;;;;;;14.13;34.64;101704.03;5143484;27;20046;-75
2022/02/23 11:29:19;;;;;;;4.20;2.78;;;;;;;14.66;35.46;101701.19;5150633;27;20061;-74
2022/02/23 11:32:05;;;;;;;3.97;2.58;;;;;;;14.33;30.54;101702.66;5133020;28;20042;-74
2022/02/23 11:34:50;;;;;;;4.25;2.53;;;;;;;14.85;32.49;101698.16;5117266;28;20054;-74
2022/02/23 11:37:36;;;;;;;6.88;3.17;;;;;;;14.30;30.11;101692.34;5132801;27;20046;-71
2022/02/23 11:40:22;;;;;;;5.10;2.40;;;;;;;14.16;29.97;101697.94;5133070;28;20517;-71
2022/02/23 11:43:24;;;;;;;11.93;4.32;;;;;;;14.02;31.28;101692.53;5140946;27;20058;-70
2022/02/23 11:46:09;;;;;;;6.93;3.50;;;;;;;14.02;31.55;101695.28;5148538;27;20425;-71
2022/02/23 11:48:57;;;;;;;8.93;3.05;;;;;;;14.22;31.06;101684.94;5153202;27;20042;-70
2022/02/23 11:51:44;;;;;;;4.90;2.95;;;;;;;14.13;30.66;101695.81;5143375;27;20054;-71
2022/02/23 11:54:50;;;;;;;5.00;2.90;;;;;;;14.24;30.92;101696.34;5152335;27;20042;-70
2022/02/23 11:57:42;;;;;;;5.80;3.00;;;;;;;14.21;31.78;101695.06;5147055;27;20503;-70
2022/02/23 12:00:30;;;;;;;7.40;2.90;;;;;;;14.24;31.44;101690.88;5153601;27;20046;-70
2022/02/23 12:03:24;;;;;;;8.68;2.60;;;;;;;14.34;30.04;101688.66;5126194;27;20050;-70
2022/02/23 12:06:09;;;;;;;10.18;3.15;;;;;;;14.67;29.54;101691.06;5156848;27;20058;-70
2022/02/23 12:08:54;;;;;;;6.22;3.05;;;;;;;14.59;30.88;101680.88;5145659;27;20054;-70
2022/02/23 12:11:40;;;;;;;;;;;;;;;14.87;30.12;101684.97;5157400;27;20046;-70
2022/02/23 12:14:50;;;;;;;4.00;2.38;;;;;;;15.19;30.15;101689.16;5136184;27;19915;-71
2022/02/23 12:17:50;;;;;;;5.05;3.20;;;;;;;15.30;29.21;101680.31;5136282;27;20058;-70
2022/02/23 12:20:36;;;;;;;14.80;3.50;;;;;;;15.59;28.53;101679.69;5152293;27;20046;-71
2022/02/23 12:23:24;;;;;;;6.93;3.05;;;;;;;15.78;29.05;101680.13;5145191;27;20046;-70
2022/02/23 12:26:12;;;;;;;5.57;2.80;;;;;;;16.12;27.32;101673.69;5156538;27;20046;-70
2022/02/23 12:28:59;;;;;;;6.95;2.90;;;;;;;16.36;26.65;101680.53;5146895;27;20045;-71
2022/02/23 12:31:45;;;;;;;3.38;2.28;;;;;;;16.72;25.88;101683.59;5155540;27;20046;-70
2022/02/23 12:34:33;;;;;;;8.10;2.72;;;;;;;18.92;24.76;101669.25;5144226;27;20046;-71
2022/02/23 12:37:20;;;;;;;5.07;2.58;;;;;;;23.90;18.98;101676.94;5151507;27;20398;-72
2022/02/23 12:40:08;;;;;;;4.57;3.10;;;;;;;31.26;12.59;101694.56;5145684;27;20050;-71
2022/02/23 12:43:11;;;;;;;9.35;3.40;;;;;;;32.76;11.01;101699.03;5142870;27;20030;-72
2022/02/23 12:45:58;;;;;;;5.20;3.30;;;;;;;30.68;11.54;101691.28;5151803;27;20045;-71
2022/02/23 12:48:45;;;;;;;6.63;2.65;;;;;;;31.63;11.11;101690.56;5147351;27;20038;-71
2022/02/23 12:51:30;;;;;;;16.42;2.72;;;;;;;34.52;9.24;101700.41;5145565;27;20050;-72
2022/02/23 12:54:17;;;;;;;5.55;3.20;;;;;;;35.00;9.13;101692.66;5155817;27;20433;-71
2022/02/23 12:57:04;;;;;;;4.70;2.53;;;;;;;36.82;7.57;101687.63;5149407;27;20054;-73
2022/02/23 12:59:55;;;;;;;4.60;2.78;;;;;;;36.66;7.83;101687.97;5143117;27;20046;-73
2022/02/23 13:02:41;;;;;;;6.13;2.72;;;;;;;36.30;7.62;101692.31;5135435;27;20045;-73